createdAt,value
2018-06-17T00:02:06.753Z,11.63
2018-06-17T00:04:37.157Z,12.13
2018-06-17T00:07:07.645Z,15.87
2018-06-17T00:09:38.069Z,13.97
2018-06-17T00:12:08.844Z,16.40
2018-06-17T00:14:39.348Z,14.43
2018-06-17T00:17:10.044Z,13.57
2018-06-17T00:19:40.886Z,13.00
2018-06-17T00:22:11.338Z,11.90
2018-06-17T00:24:41.798Z,11.40
2018-06-17T00:27:12.219Z,16.47
2018-06-17T00:29:43.425Z,18.57
2018-06-17T00:32:13.940Z,19.83
2018-06-17T00:34:44.427Z,13.97
2018-06-17T00:37:15.026Z,15.50
2018-06-17T00:39:45.477Z,16.90
2018-06-17T00:42:15.970Z,10.83
2018-06-17T00:44:46.651Z,17.13
2018-06-17T00:47:17.537Z,13.93
2018-06-17T00:49:47.951Z,17.80
2018-06-17T00:52:18.311Z,16.40
2018-06-17T00:54:48.740Z,17.93
2018-06-17T00:57:30.096Z,14.40
2018-06-17T01:00:00.534Z,14.27
2018-06-17T01:02:31.532Z,15.47
2018-06-17T01:05:02.704Z,16.27
2018-06-17T01:07:33.405Z,11.93
2018-06-17T01:10:04.181Z,16.13
2018-06-17T01:12:34.703Z,13.07
2018-06-17T01:15:05.144Z,11.77
2018-06-17T01:17:35.702Z,18.37
2018-06-17T01:20:06.771Z,12.53
2018-06-17T01:22:38.063Z,14.27
2018-06-17T01:25:08.665Z,17.63
2018-06-17T01:27:39.125Z,16.07
2018-06-17T01:30:09.534Z,19.87
2018-06-17T01:32:40.539Z,18.90
2018-06-17T01:35:10.958Z,18.27
2018-06-17T01:37:41.367Z,21.83
2018-06-17T01:40:11.698Z,18.80
2018-06-17T01:42:42.048Z,17.23
2018-06-17T01:45:12.493Z,15.97
2018-06-17T01:47:42.995Z,18.97
2018-06-17T01:50:13.360Z,22.77
2018-06-17T01:52:44.072Z,21.60
2018-06-17T01:55:14.848Z,19.60
2018-06-17T01:57:45.451Z,20.87
2018-06-17T02:00:16.103Z,23.27
2018-06-17T02:02:46.720Z,19.10
2018-06-17T02:05:22.908Z,18.30
2018-06-17T02:07:58.331Z,16.97
2018-06-17T02:10:33.742Z,20.07
2018-06-17T02:13:04.613Z,18.70
2018-06-17T02:15:35.353Z,17.03
2018-06-17T02:18:05.902Z,22.73
2018-06-17T02:20:36.415Z,18.67
2018-06-17T02:23:07.441Z,20.73
2018-06-17T02:25:37.943Z,23.13
2018-06-17T02:28:08.644Z,20.23
2018-06-17T02:30:39.174Z,18.60
2018-06-17T02:33:09.829Z,22.27
2018-06-17T02:35:40.413Z,18.30
2018-06-17T02:38:10.994Z,19.90
2018-06-17T02:40:41.497Z,21.87
2018-06-17T02:43:11.999Z,21.07
2018-06-17T02:45:47.490Z,21.70
2018-06-17T02:48:22.930Z,25.53
2018-06-17T02:50:58.421Z,19.43
2018-06-17T02:53:33.833Z,18.67
2018-06-17T02:56:04.246Z,23.30
2018-06-17T02:58:34.683Z,20.87
2018-06-17T03:01:05.204Z,19.57
2018-06-17T03:03:35.999Z,19.93
2018-06-17T03:06:06.864Z,21.77
2018-06-17T03:08:37.304Z,19.50
2018-06-17T03:11:07.983Z,20.07
2018-06-17T03:13:38.512Z,27.37
2018-06-17T03:16:08.914Z,26.20
2018-06-17T03:18:39.548Z,26.57
2018-06-17T03:21:09.960Z,25.17
2018-06-17T03:23:40.520Z,24.30
2018-06-17T03:26:15.851Z,25.37
2018-06-17T03:28:51.516Z,26.90
2018-06-17T03:31:21.945Z,28.60
2018-06-17T03:33:56.433Z,30.60
2018-06-17T03:36:26.798Z,30.07
2018-06-17T03:38:57.287Z,35.37
2018-06-17T03:41:27.689Z,28.60
2018-06-17T03:43:58.067Z,30.10
2018-06-17T03:46:28.698Z,22.80
2018-06-17T03:48:59.435Z,26.63
2018-06-17T03:51:30.066Z,23.40
2018-06-17T03:54:00.550Z,22.53
2018-06-17T03:56:30.963Z,26.23
2018-06-17T03:59:01.569Z,22.33
2018-06-17T04:01:32.142Z,22.10
2018-06-17T04:04:02.649Z,22.73
2018-06-17T04:06:33.159Z,19.00
2018-06-17T04:09:03.867Z,24.03
2018-06-17T04:11:34.547Z,32.20
2018-06-17T04:14:05.134Z,23.77
2018-06-17T04:16:35.605Z,20.73
2018-06-17T04:19:06.024Z,24.53
2018-06-17T04:21:36.735Z,20.40
2018-06-17T04:24:07.323Z,27.50
2018-06-17T04:26:37.680Z,18.67
2018-06-17T04:29:08.365Z,21.60
2018-06-17T04:31:38.881Z,34.30
2018-06-17T04:34:09.532Z,31.77
2018-06-17T04:36:39.896Z,22.93
2018-06-17T04:39:10.332Z,20.70
2018-06-17T04:41:40.771Z,22.07
2018-06-17T04:44:11.136Z,23.67
2018-06-17T04:46:41.592Z,33.80
2018-06-17T04:49:12.457Z,26.13
2018-06-17T04:51:42.986Z,21.40
2018-06-17T04:54:13.695Z,21.37
2018-06-17T04:56:44.136Z,22.63
2018-06-17T04:59:14.583Z,22.67
2018-06-17T05:01:45.136Z,19.87
2018-06-17T05:04:15.511Z,27.17
2018-06-17T05:06:46.158Z,29.00
2018-06-17T05:09:16.679Z,19.00
2018-06-17T05:11:47.560Z,21.00
2018-06-17T05:14:18.190Z,24.90
2018-06-17T05:16:48.723Z,22.10
2018-06-17T05:19:19.501Z,25.27
2018-06-17T05:21:50.020Z,25.20
2018-06-17T05:24:20.325Z,25.20
2018-06-17T05:26:51.095Z,24.43
2018-06-17T05:29:21.424Z,26.50
2018-06-17T05:31:51.848Z,38.90
2018-06-17T05:34:22.447Z,25.70
2018-06-17T05:36:53.045Z,34.13
2018-06-17T05:39:23.547Z,32.70
2018-06-17T05:41:53.903Z,23.17
2018-06-17T05:44:24.681Z,22.30
2018-06-17T05:46:55.264Z,20.47
2018-06-17T05:49:25.832Z,25.47
2018-06-17T05:51:56.243Z,70.93
2018-06-17T05:54:26.704Z,24.37
2018-06-17T05:56:57.516Z,49.80
2018-06-17T05:59:28.735Z,23.30
2018-06-17T06:01:59.243Z,21.70
2018-06-17T06:04:29.801Z,21.53
2018-06-17T06:07:00.281Z,17.77
2018-06-17T06:09:30.746Z,27.37
2018-06-17T06:12:01.374Z,21.53
2018-06-17T06:14:31.806Z,24.53
2018-06-17T06:17:02.284Z,17.40
2018-06-17T06:19:32.742Z,14.17
2018-06-17T06:22:03.575Z,17.10
2018-06-17T06:24:34.049Z,16.80
2018-06-17T06:27:04.456Z,15.07
2018-06-17T06:29:35.614Z,40.73
2018-06-17T06:32:06.258Z,18.77
2018-06-17T06:34:37.025Z,15.77
2018-06-17T06:37:07.501Z,17.57
2018-06-17T06:39:38.072Z,16.10
2018-06-17T06:42:08.611Z,20.00
2018-06-17T06:44:39.047Z,14.43
2018-06-17T06:47:09.656Z,14.30
2018-06-17T06:49:40.201Z,21.63
2018-06-17T06:52:10.621Z,14.80
2018-06-17T06:54:41.360Z,15.90
2018-06-17T06:57:11.952Z,10.30
2018-06-17T06:59:42.268Z,14.20
2018-06-17T07:02:23.739Z,16.17
2018-06-17T07:05:05.203Z,16.80
2018-06-17T07:07:46.506Z,10.37
2018-06-17T07:10:25.050Z,12.90
2018-06-17T07:12:55.788Z,12.77
2018-06-17T07:15:38.414Z,17.07
2018-06-17T07:18:19.486Z,14.83
2018-06-17T07:20:49.872Z,12.37
2018-06-17T07:23:20.137Z,13.63
2018-06-17T07:26:28.535Z,11.70
2018-06-17T07:29:09.727Z,12.13
2018-06-17T07:31:39.967Z,12.87
2018-06-17T07:34:11.336Z,13.33
2018-06-17T07:36:41.854Z,12.63
2018-06-17T07:40:25.420Z,11.97
2018-06-17T07:42:55.728Z,13.27
2018-06-17T07:45:25.963Z,11.60
2018-06-17T07:47:56.425Z,12.67
2018-06-17T07:50:37.515Z,11.57
2018-06-17T07:53:17.960Z,14.73
2018-06-17T07:55:49.052Z,11.33
2018-06-17T07:58:19.676Z,11.53
2018-06-17T08:00:50.043Z,12.03
2018-06-17T08:03:20.731Z,13.80
2018-06-17T08:05:51.104Z,12.37
2018-06-17T08:08:21.409Z,11.73
2018-06-17T08:10:51.926Z,10.73
2018-06-17T08:13:22.213Z,15.67
2018-06-17T08:15:52.653Z,15.93
2018-06-17T08:18:25.871Z,12.13
2018-06-17T08:20:56.329Z,16.87
2018-06-17T08:23:26.812Z,14.70
2018-06-17T08:25:57.027Z,18.57
2018-06-17T08:28:27.260Z,13.73
2018-06-17T08:30:57.671Z,13.13
2018-06-17T08:33:27.855Z,16.07
2018-06-17T08:35:57.993Z,18.80
2018-06-17T08:38:28.358Z,17.87
2018-06-17T08:40:59.877Z,13.27
2018-06-17T08:43:30.915Z,20.80
2018-06-17T08:46:01.228Z,21.67
2018-06-17T08:48:40.410Z,14.83
2018-06-17T08:51:12.671Z,18.90
2018-06-17T08:53:44.092Z,15.17
2018-06-17T08:56:18.685Z,19.73
2018-06-17T08:58:49.890Z,16.93
2018-06-17T09:01:22.728Z,17.07
2018-06-17T09:03:53.523Z,20.10
2018-06-17T09:06:25.307Z,17.33
2018-06-17T09:08:56.792Z,14.70
2018-06-17T09:11:28.217Z,16.47
2018-06-17T09:13:58.697Z,14.33
2018-06-17T09:16:28.925Z,20.93
2018-06-17T09:18:59.232Z,21.37
2018-06-17T09:21:29.831Z,21.73
2018-06-17T09:23:59.955Z,16.60
2018-06-17T09:26:30.108Z,11.43
2018-06-17T09:29:00.308Z,11.67
2018-06-17T09:31:30.651Z,11.73
2018-06-17T09:34:01.181Z,12.60
2018-06-17T09:36:31.551Z,13.00
2018-06-17T09:39:01.952Z,17.50
2018-06-17T09:41:32.196Z,13.57
2018-06-17T09:44:02.569Z,15.63
2018-06-17T09:46:33.128Z,12.90
2018-06-17T09:49:03.429Z,13.30
2018-06-17T09:51:33.643Z,19.33
2018-06-17T09:54:03.679Z,15.60
2018-06-17T09:56:33.867Z,16.33
2018-06-17T09:59:04.088Z,11.07
2018-06-17T10:01:34.356Z,12.90
2018-06-17T10:04:04.611Z,12.37
2018-06-17T10:06:34.901Z,9.77
2018-06-17T10:09:08.149Z,14.97
2018-06-17T10:11:38.514Z,13.17
2018-06-17T10:14:09.185Z,11.27
2018-06-17T10:16:39.872Z,17.43
2018-06-17T10:19:10.183Z,14.50
2018-06-17T10:21:40.884Z,14.77
2018-06-17T10:24:11.340Z,11.47
2018-06-17T10:26:41.793Z,15.63
2018-06-17T10:29:12.368Z,13.23
2018-06-17T10:31:42.907Z,12.13
2018-06-17T10:34:13.578Z,13.23
2018-06-17T10:36:44.074Z,14.47
2018-06-17T10:39:15.827Z,15.07
2018-06-17T10:41:46.953Z,10.03
2018-06-17T10:44:18.384Z,12.97
2018-06-17T10:46:50.144Z,13.93
2018-06-17T10:49:21.577Z,13.40
2018-06-17T10:51:52.290Z,24.43
2018-06-17T10:54:23.397Z,16.53
2018-06-17T10:56:53.917Z,16.30
2018-06-17T10:59:24.318Z,15.30
2018-06-17T11:01:54.991Z,12.50
2018-06-17T11:04:25.361Z,12.67
2018-06-17T11:06:55.790Z,13.13
2018-06-17T11:09:27.585Z,16.23
2018-06-17T11:11:58.293Z,13.80
2018-06-17T11:14:28.651Z,17.73
2018-06-17T11:16:59.126Z,10.73
2018-06-17T11:19:29.631Z,14.37
2018-06-17T11:22:00.008Z,11.77
2018-06-17T11:24:30.635Z,20.87
2018-06-17T11:27:01.064Z,33.97
2018-06-17T11:29:31.386Z,17.53
2018-06-17T11:32:01.921Z,12.30
2018-06-17T11:34:32.360Z,17.60
2018-06-17T11:37:03.182Z,14.77
2018-06-17T11:39:33.980Z,10.20
2018-06-17T11:42:04.706Z,9.83
2018-06-17T11:44:35.199Z,11.73
2018-06-17T11:47:05.930Z,11.80
2018-06-17T11:49:36.828Z,15.33
2018-06-17T11:52:07.424Z,7.47
2018-06-17T11:54:38.130Z,15.10
2018-06-17T11:57:08.971Z,11.50
2018-06-17T11:59:39.774Z,12.90
2018-06-17T12:02:10.246Z,6.83
2018-06-17T12:04:41.495Z,9.07
2018-06-17T12:07:27.773Z,12.73
2018-06-17T12:10:15.616Z,9.20
2018-06-17T12:12:47.434Z,13.00
2018-06-17T12:15:17.900Z,9.00
2018-06-17T12:17:48.520Z,8.87
2018-06-17T12:20:18.972Z,17.93
2018-06-17T12:22:49.590Z,15.00
2018-06-17T12:25:20.094Z,13.87
2018-06-17T12:27:51.239Z,9.80
2018-06-17T12:30:21.706Z,9.77
2018-06-17T12:32:52.307Z,7.87
2018-06-17T12:35:22.697Z,9.83
2018-06-17T12:37:53.661Z,9.30
2018-06-17T12:40:24.251Z,22.70
2018-06-17T12:42:54.945Z,10.17
2018-06-17T12:45:25.832Z,17.77
2018-06-17T12:47:56.576Z,8.50
2018-06-17T12:50:27.527Z,12.80
2018-06-17T12:52:58.093Z,11.97
2018-06-17T12:55:28.805Z,12.70
2018-06-17T12:57:59.297Z,10.53
2018-06-17T13:00:29.747Z,9.60
2018-06-17T13:03:00.257Z,7.97
2018-06-17T13:05:31.049Z,7.97
2018-06-17T13:08:01.588Z,8.27
2018-06-17T13:10:32.082Z,7.63
2018-06-17T13:13:02.477Z,7.90
2018-06-17T13:15:33.551Z,9.63
2018-06-17T13:18:04.004Z,7.70
2018-06-17T13:20:34.537Z,6.47
2018-06-17T13:23:06.287Z,8.43
2018-06-17T13:25:36.986Z,7.97
2018-06-17T13:28:07.402Z,6.13
2018-06-17T13:30:37.919Z,6.87
2018-06-17T13:33:08.296Z,8.83
2018-06-17T13:35:38.957Z,5.93
2018-06-17T13:38:09.274Z,7.13
2018-06-17T13:40:39.861Z,7.93
2018-06-17T13:43:10.619Z,10.43
2018-06-17T13:45:42.096Z,6.40
2018-06-17T13:48:12.465Z,7.73
2018-06-17T13:50:42.972Z,6.53
2018-06-17T13:53:13.583Z,9.93
2018-06-17T13:55:44.244Z,10.30
2018-06-17T13:58:14.571Z,8.70
2018-06-17T14:00:45.246Z,6.03
2018-06-17T14:03:15.939Z,5.60
2018-06-17T14:05:47.155Z,11.97
2018-06-17T14:08:18.112Z,7.90
2018-06-17T14:10:48.795Z,16.13
2018-06-17T14:13:19.362Z,7.30
2018-06-17T14:15:50.008Z,12.47
2018-06-17T14:18:20.617Z,9.00
2018-06-17T14:20:51.237Z,7.30
2018-06-17T14:23:22.230Z,8.10
2018-06-17T14:25:52.586Z,8.47
2018-06-17T14:28:23.511Z,6.40
2018-06-17T14:30:54.047Z,7.47
2018-06-17T14:33:24.550Z,6.10
2018-06-17T14:35:55.212Z,12.17
2018-06-17T14:38:25.728Z,6.63
2018-06-17T14:41:01.477Z,5.53
2018-06-17T14:43:37.211Z,7.00
2018-06-17T14:46:13.144Z,7.37
2018-06-17T14:48:48.715Z,5.63
2018-06-17T14:51:24.272Z,7.50
2018-06-17T14:53:54.741Z,7.67
2018-06-17T14:56:25.137Z,11.37
2018-06-17T14:58:55.506Z,6.50
2018-06-17T15:01:26.217Z,6.07
2018-06-17T15:03:56.990Z,8.63
2018-06-17T15:06:27.551Z,8.43
2018-06-17T15:08:58.852Z,9.73
2018-06-17T15:11:29.740Z,10.47
2018-06-17T15:14:00.288Z,10.23
2018-06-17T15:16:31.328Z,9.77
2018-06-17T15:19:01.743Z,10.90
2018-06-17T15:21:32.700Z,10.70
2018-06-17T15:24:03.232Z,8.20
2018-06-17T15:26:33.809Z,8.93
2018-06-17T15:29:05.764Z,7.07
2018-06-17T15:31:42.161Z,7.60
2018-06-17T15:34:17.547Z,8.60
2018-06-17T15:36:53.164Z,7.70
2018-06-17T15:39:28.718Z,7.83
2018-06-17T15:41:59.184Z,7.87
2018-06-17T15:44:30.092Z,7.40
2018-06-17T15:47:00.777Z,9.23
2018-06-17T15:49:31.381Z,8.93
2018-06-17T15:52:02.268Z,9.10
2018-06-17T15:54:32.642Z,8.83
2018-06-17T15:57:03.484Z,13.20
2018-06-17T15:59:34.059Z,12.33
2018-06-17T16:02:04.607Z,8.93
2018-06-17T16:04:35.179Z,9.20
2018-06-17T16:07:05.876Z,74.37
2018-06-17T16:09:36.519Z,8.97
2018-06-17T16:12:11.947Z,9.97
2018-06-17T16:15:47.947Z,12.20
2018-06-17T16:18:23.528Z,7.60
2018-06-17T16:20:58.735Z,9.27
2018-06-17T16:23:30.600Z,7.23
2018-06-17T16:26:01.211Z,10.03
2018-06-17T16:28:32.024Z,10.97
2018-06-17T16:31:03.295Z,9.00
2018-06-17T16:33:34.852Z,8.87
2018-06-17T16:36:05.505Z,8.33
2018-06-17T16:38:36.074Z,11.57
2018-06-17T16:41:06.912Z,10.77
2018-06-17T16:43:37.548Z,8.13
2018-06-17T16:46:08.008Z,10.90
2018-06-17T16:48:38.623Z,8.60
2018-06-17T16:51:15.359Z,7.07
2018-06-17T16:54:52.711Z,9.43
2018-06-17T16:57:28.851Z,7.47
2018-06-17T17:00:02.403Z,10.33
2018-06-17T17:02:32.917Z,9.13
2018-06-17T17:05:03.519Z,7.77
2018-06-17T17:07:35.693Z,6.20
2018-06-17T17:10:06.283Z,7.53
2018-06-17T17:12:37.203Z,8.77
2018-06-17T17:15:08.082Z,11.07
2018-06-17T17:17:38.447Z,9.40
2018-06-17T17:20:08.958Z,9.60
2018-06-17T17:22:40.115Z,14.33
2018-06-17T17:25:10.601Z,14.60
2018-06-17T17:27:41.441Z,11.23
2018-06-17T17:30:12.152Z,14.13
2018-06-17T17:32:47.984Z,17.87
2018-06-17T17:35:24.004Z,12.67
2018-06-17T17:37:59.523Z,10.87
2018-06-17T17:40:49.056Z,11.37
2018-06-17T17:43:19.540Z,10.43
2018-06-17T17:45:55.460Z,11.33
2018-06-17T17:48:25.921Z,10.70
2018-06-17T17:50:56.257Z,9.87
2018-06-17T17:53:29.091Z,13.37
2018-06-17T17:56:00.299Z,13.30
2018-06-17T17:58:32.557Z,12.80
2018-06-17T18:01:03.164Z,12.33
2018-06-17T18:03:34.590Z,12.47
2018-06-17T18:06:05.272Z,14.57
2018-06-17T18:08:35.975Z,10.43
2018-06-17T18:11:06.753Z,11.50
2018-06-17T18:13:37.366Z,10.67
2018-06-17T18:16:08.701Z,11.97
2018-06-17T18:18:39.363Z,10.37
2018-06-17T18:21:10.403Z,11.63
2018-06-17T18:23:40.727Z,16.60
2018-06-17T18:26:16.179Z,13.37
2018-06-17T18:28:52.682Z,11.40
2018-06-17T18:31:23.052Z,13.43
2018-06-17T18:33:58.419Z,13.20
2018-06-17T18:36:28.979Z,16.07
2018-06-17T18:38:59.376Z,17.67
2018-06-17T18:41:29.255Z,22.10
2018-06-17T18:44:00.200Z,13.80
2018-06-17T18:46:31.052Z,12.07
2018-06-17T18:49:01.744Z,21.43
2018-06-17T18:51:32.602Z,17.23
2018-06-17T18:54:07.734Z,12.70
2018-06-17T18:56:38.896Z,16.73
2018-06-17T18:59:09.912Z,15.80
2018-06-17T19:01:40.790Z,15.13
2018-06-17T19:04:11.705Z,18.43
2018-06-17T19:06:42.658Z,19.07
2018-06-17T19:09:18.159Z,16.40
2018-06-17T19:11:54.220Z,17.20
2018-06-17T19:14:29.900Z,15.17
2018-06-17T19:17:05.924Z,16.50
2018-06-17T19:19:37.271Z,26.47
2018-06-17T19:22:08.203Z,21.83
2018-06-17T19:24:39.307Z,20.07
2018-06-17T19:27:10.301Z,16.00
2018-06-17T19:29:42.411Z,13.17
2018-06-17T19:32:13.534Z,13.53
2018-06-17T19:34:44.361Z,16.20
2018-06-17T19:37:15.388Z,24.57
2018-06-17T19:39:46.719Z,21.73
2018-06-17T19:42:18.041Z,22.50
2018-06-17T19:44:48.855Z,26.90
2018-06-17T19:47:20.623Z,19.13
2018-06-17T19:49:56.061Z,21.10
2018-06-17T19:52:31.624Z,24.77
2018-06-17T19:55:08.319Z,25.00
2018-06-17T19:57:43.771Z,28.57
2018-06-17T20:00:19.995Z,23.27
2018-06-17T20:02:51.046Z,22.10
2018-06-17T20:05:22.016Z,17.77
2018-06-17T20:07:52.899Z,18.67
2018-06-17T20:10:23.821Z,15.73
2018-06-17T20:12:54.627Z,18.73
2018-06-17T20:15:25.951Z,20.47
2018-06-17T20:17:56.652Z,17.33
2018-06-17T20:20:27.394Z,15.23
2018-06-17T20:22:58.828Z,14.17
2018-06-17T20:25:31.471Z,20.60
2018-06-17T20:28:02.402Z,22.17
2018-06-17T20:30:33.312Z,24.73
2018-06-17T20:33:09.235Z,19.63
2018-06-17T20:35:45.450Z,22.17
2018-06-17T20:38:23.846Z,24.90
2018-06-17T20:42:03.412Z,23.20
2018-06-17T20:44:34.296Z,23.03
2018-06-17T20:47:05.767Z,34.73
2018-06-17T20:49:37.072Z,38.20
2018-06-17T20:52:08.702Z,36.83
2018-06-17T20:54:40.045Z,28.80
2018-06-17T20:57:13.607Z,26.40
2018-06-17T20:59:44.954Z,28.40
2018-06-17T21:02:15.667Z,28.07
2018-06-17T21:04:46.996Z,30.43
2018-06-17T21:07:17.332Z,28.33
2018-06-17T21:09:49.144Z,28.30
2018-06-17T21:12:20.678Z,20.70
2018-06-17T21:14:51.368Z,25.13
2018-06-17T21:17:23.731Z,25.83
2018-06-17T21:19:59.266Z,23.13
2018-06-17T21:22:35.959Z,28.07
2018-06-17T21:25:13.125Z,28.63
2018-06-17T21:27:44.126Z,26.93
2018-06-17T21:30:14.951Z,21.03
2018-06-17T21:32:45.447Z,26.70
2018-06-17T21:35:16.603Z,20.83
2018-06-17T21:37:47.221Z,30.17
2018-06-17T21:40:18.014Z,21.80
2018-06-17T21:42:48.383Z,25.00
2018-06-17T21:45:19.459Z,27.63
2018-06-17T21:47:49.990Z,29.07
2018-06-17T21:50:20.394Z,25.87
2018-06-17T21:52:57.274Z,24.20
2018-06-17T21:59:10.041Z,24.73
2018-06-17T22:05:48.974Z,19.97
2018-06-17T22:09:07.654Z,23.47
2018-06-17T22:17:58.096Z,25.17
2018-06-17T22:20:28.799Z,23.17
2018-06-17T22:22:59.384Z,19.73
2018-06-17T22:25:29.342Z,18.87
2018-06-17T22:27:59.933Z,21.50
2018-06-17T22:30:30.731Z,23.93
2018-06-17T22:33:01.342Z,25.60
2018-06-17T22:35:31.954Z,24.57
2018-06-17T22:38:02.399Z,23.03
2018-06-17T22:40:33.463Z,25.50
2018-06-17T22:43:04.057Z,27.23
2018-06-17T22:45:37.860Z,26.73
2018-06-17T22:48:08.253Z,31.77
2018-06-17T22:50:38.674Z,27.63
2018-06-17T22:53:20.047Z,28.00
2018-06-17T22:55:50.711Z,27.13
2018-06-17T22:58:26.184Z,26.27
2018-06-17T23:01:01.555Z,28.07
2018-06-17T23:03:37.204Z,24.20
2018-06-17T23:06:12.458Z,24.33
2018-06-17T23:08:48.041Z,23.93
2018-06-17T23:11:19.069Z,23.10
2018-06-17T23:13:49.803Z,25.20
2018-06-17T23:16:20.360Z,21.57
2018-06-17T23:18:50.917Z,21.53
2018-06-17T23:21:21.624Z,24.20
2018-06-17T23:23:52.097Z,24.50
2018-06-17T23:26:22.541Z,19.53
2018-06-17T23:28:52.961Z,19.43
2018-06-17T23:31:23.320Z,25.67
2018-06-17T23:33:54.007Z,19.93
2018-06-17T23:36:24.507Z,21.23
2018-06-17T23:38:54.917Z,20.20
2018-06-17T23:41:25.436Z,20.30
2018-06-17T23:43:56.136Z,24.40
2018-06-17T23:46:31.992Z,23.60
2018-06-17T23:49:07.545Z,24.83
2018-06-17T23:51:43.239Z,21.03
2018-06-17T23:54:18.967Z,25.77
2018-06-17T23:56:49.675Z,30.00
2018-06-17T23:59:20.526Z,23.10
